createdAt,value
2018-03-11T00:00:58.463Z,988.97
2018-03-11T00:01:58.439Z,988.96
2018-03-11T00:03:51.792Z,988.90
2018-03-11T00:04:51.773Z,988.88
2018-03-11T00:06:45.122Z,988.89
2018-03-11T00:07:45.093Z,988.90
2018-03-11T00:09:37.942Z,988.85
2018-03-11T00:10:37.920Z,988.81
2018-03-11T00:12:30.784Z,988.84
2018-03-11T00:13:30.751Z,988.82
2018-03-11T00:15:24.098Z,988.86
2018-03-11T00:16:24.082Z,988.89
2018-03-11T00:18:16.935Z,988.99
2018-03-11T00:19:16.907Z,989.04
2018-03-11T00:21:10.257Z,989.03
2018-03-11T00:22:10.238Z,989.02
2018-03-11T00:24:03.593Z,988.96
2018-03-11T00:25:03.560Z,988.96
2018-03-11T00:26:56.911Z,988.94
2018-03-11T00:27:56.885Z,988.94
2018-03-11T00:29:49.746Z,988.87
2018-03-11T00:30:49.714Z,988.84
2018-03-11T00:32:42.568Z,988.85
2018-03-11T00:33:42.550Z,988.81
2018-03-11T00:35:35.912Z,988.83
2018-03-11T00:36:35.874Z,988.86
2018-03-11T00:38:29.218Z,988.87
2018-03-11T00:39:29.199Z,988.84
2018-03-11T00:41:22.553Z,988.85
2018-03-11T00:42:22.518Z,988.85
2018-03-11T00:44:15.369Z,988.80
2018-03-11T00:45:15.350Z,988.80
2018-03-11T00:47:08.212Z,988.83
2018-03-11T00:48:08.178Z,988.81
2018-03-11T00:50:01.032Z,988.78
2018-03-11T00:51:01.012Z,988.73
2018-03-11T00:52:53.875Z,988.73
2018-03-11T00:53:53.844Z,988.70
2018-03-11T00:55:46.699Z,988.69
2018-03-11T00:56:46.677Z,988.64
2018-03-11T00:58:40.038Z,988.57
2018-03-11T00:59:40.004Z,988.54
2018-03-11T01:01:32.856Z,988.54
2018-03-11T01:02:32.833Z,988.49
2018-03-11T01:04:26.215Z,988.48
2018-03-11T01:05:26.753Z,988.42
2018-03-11T01:07:19.524Z,988.31
2018-03-11T01:08:19.505Z,988.31
2018-03-11T01:10:12.861Z,988.25
2018-03-11T01:11:12.827Z,988.22
2018-03-11T01:13:06.190Z,988.16
2018-03-11T01:14:06.164Z,988.10
2018-03-11T01:15:59.528Z,988.08
2018-03-11T01:16:59.500Z,988.05
2018-03-11T01:18:52.347Z,988.07
2018-03-11T01:19:52.328Z,988.06
2018-03-11T01:21:45.190Z,987.98
2018-03-11T01:22:45.158Z,987.90
2018-03-11T01:24:38.505Z,987.82
2018-03-11T01:25:38.481Z,987.78
2018-03-11T01:27:31.347Z,987.77
2018-03-11T01:28:31.311Z,987.69
2018-03-11T01:30:24.168Z,987.71
2018-03-11T01:31:24.142Z,987.73
2018-03-11T01:33:17.004Z,987.75
2018-03-11T01:34:16.976Z,987.76
2018-03-11T01:36:09.831Z,987.73
2018-03-11T01:37:09.809Z,987.68
2018-03-11T01:39:02.671Z,987.73
2018-03-11T01:40:02.642Z,987.73
2018-03-11T01:41:55.493Z,987.71
2018-03-11T01:42:55.473Z,987.64
2018-03-11T01:44:48.827Z,987.66
2018-03-11T01:45:48.799Z,987.68
2018-03-11T01:47:42.147Z,987.59
2018-03-11T01:48:42.123Z,987.59
2018-03-11T01:50:34.990Z,987.53
2018-03-11T01:51:34.964Z,987.51
2018-03-11T01:53:27.811Z,987.46
2018-03-11T01:54:27.791Z,987.39
2018-03-11T01:56:20.661Z,987.35
2018-03-11T01:57:20.640Z,987.29
2018-03-11T01:59:13.475Z,987.23
2018-03-11T02:00:13.451Z,987.21
2018-03-11T02:02:06.827Z,987.17
2018-03-11T02:03:06.797Z,987.20
2018-03-11T02:04:59.646Z,987.07
2018-03-11T02:05:59.625Z,987.00
2018-03-11T02:07:52.980Z,986.95
2018-03-11T02:08:52.950Z,986.86
2018-03-11T02:10:45.800Z,986.85
2018-03-11T02:11:45.783Z,986.80
2018-03-11T02:13:38.654Z,986.74
2018-03-11T02:14:38.613Z,986.72
2018-03-11T02:16:31.468Z,986.74
2018-03-11T02:17:31.449Z,986.74
2018-03-11T02:19:24.308Z,986.70
2018-03-11T02:20:24.293Z,986.70
2018-03-11T02:22:17.127Z,986.64
2018-03-11T02:23:17.109Z,986.60
2018-03-11T02:25:09.986Z,986.59
2018-03-11T02:26:09.940Z,986.60
2018-03-11T02:28:03.283Z,986.57
2018-03-11T02:29:03.263Z,986.58
2018-03-11T02:30:56.620Z,986.54
2018-03-11T02:31:56.596Z,986.56
2018-03-11T02:33:49.934Z,986.49
2018-03-11T02:34:49.917Z,986.50
2018-03-11T02:36:42.781Z,986.56
2018-03-11T02:37:42.752Z,986.50
2018-03-11T02:39:36.094Z,986.52
2018-03-11T02:40:36.071Z,986.50
2018-03-11T02:42:29.427Z,986.51
2018-03-11T02:43:29.394Z,986.50
2018-03-11T02:45:22.279Z,986.47
2018-03-11T02:46:22.269Z,986.48
2018-03-11T02:48:16.120Z,986.42
2018-03-11T02:49:16.088Z,986.43
2018-03-11T02:51:09.442Z,986.37
2018-03-11T02:52:09.412Z,986.36
2018-03-11T02:54:02.273Z,986.31
2018-03-11T02:55:02.245Z,986.30
2018-03-11T02:56:55.099Z,986.30
2018-03-11T02:57:55.081Z,986.31
2018-03-11T02:59:47.953Z,986.27
2018-03-11T03:00:47.915Z,986.27
2018-03-11T03:02:40.779Z,986.26
2018-03-11T03:03:40.774Z,986.24
2018-03-11T03:05:34.123Z,986.20
2018-03-11T03:06:34.088Z,986.17
2018-03-11T03:08:27.432Z,986.19
2018-03-11T03:09:27.412Z,986.17
2018-03-11T03:11:20.281Z,986.20
2018-03-11T03:12:20.244Z,986.21
2018-03-11T03:14:13.588Z,986.21
2018-03-11T03:15:13.567Z,986.26
2018-03-11T03:17:06.932Z,986.21
2018-03-11T03:18:06.892Z,986.22
2018-03-11T03:19:59.744Z,986.25
2018-03-11T03:20:59.724Z,986.27
2018-03-11T03:22:52.595Z,986.28
2018-03-11T03:23:52.567Z,986.27
2018-03-11T03:25:45.415Z,986.23
2018-03-11T03:26:45.395Z,986.25
2018-03-11T03:28:38.256Z,986.22
2018-03-11T03:29:38.225Z,986.26
2018-03-11T03:31:31.080Z,986.22
2018-03-11T03:32:31.056Z,986.21
2018-03-11T03:34:24.421Z,986.26
2018-03-11T03:35:24.388Z,986.26
2018-03-11T03:37:17.252Z,986.28
2018-03-11T03:38:17.233Z,986.28
2018-03-11T03:40:10.588Z,986.28
2018-03-11T03:41:10.554Z,986.27
2018-03-11T03:43:03.405Z,986.27
2018-03-11T03:44:03.387Z,986.28
2018-03-11T03:45:56.249Z,986.27
2018-03-11T03:46:56.224Z,986.29
2018-03-11T03:48:49.577Z,986.25
2018-03-11T03:49:49.596Z,986.24
2018-03-11T03:51:42.421Z,986.29
2018-03-11T03:52:42.388Z,986.27
2018-03-11T03:54:35.733Z,986.26
2018-03-11T03:55:35.712Z,986.24
2018-03-11T03:57:28.621Z,986.23
2018-03-11T03:58:28.540Z,986.24
2018-03-11T04:00:21.409Z,986.24
2018-03-11T04:01:21.384Z,986.23
2018-03-11T04:03:14.744Z,986.21
2018-03-11T04:04:14.712Z,986.19
2018-03-11T04:06:07.561Z,986.15
2018-03-11T04:07:07.541Z,986.15
2018-03-11T04:09:00.407Z,986.16
2018-03-11T04:10:00.374Z,986.16
2018-03-11T04:11:53.224Z,986.10
2018-03-11T04:12:53.204Z,986.11
2018-03-11T04:14:46.077Z,986.03
2018-03-11T04:15:46.048Z,986.07
2018-03-11T04:17:39.387Z,986.01
2018-03-11T04:18:39.369Z,985.98
2018-03-11T04:20:32.228Z,985.95
2018-03-11T04:21:32.199Z,985.92
2018-03-11T04:23:25.053Z,985.95
2018-03-11T04:24:25.031Z,985.92
2018-03-11T04:26:18.393Z,985.90
2018-03-11T04:27:18.365Z,985.88
2018-03-11T04:29:11.706Z,985.86
2018-03-11T04:30:11.687Z,985.91
2018-03-11T04:32:04.549Z,985.81
2018-03-11T04:33:04.520Z,985.79
2018-03-11T04:34:57.369Z,985.77
2018-03-11T04:35:57.347Z,985.78
2018-03-11T04:37:50.211Z,985.76
2018-03-11T04:38:50.179Z,985.73
2018-03-11T04:40:43.030Z,985.73
2018-03-11T04:41:43.010Z,985.70
2018-03-11T04:43:36.362Z,985.70
2018-03-11T04:44:36.332Z,985.67
2018-03-11T04:46:29.189Z,985.59
2018-03-11T04:47:29.169Z,985.60
2018-03-11T04:49:22.038Z,985.56
2018-03-11T04:50:22.005Z,985.54
2018-03-11T04:52:15.355Z,985.51
2018-03-11T04:53:15.331Z,985.50
2018-03-11T04:55:08.189Z,985.51
2018-03-11T04:56:08.162Z,985.46
2018-03-11T04:58:01.009Z,985.34
2018-03-11T04:59:00.997Z,985.33
2018-03-11T05:00:53.873Z,985.30
2018-03-11T05:01:53.822Z,985.34
2018-03-11T05:03:46.677Z,985.35
2018-03-11T05:04:46.653Z,985.35
2018-03-11T05:06:39.517Z,985.34
2018-03-11T05:07:39.485Z,985.37
2018-03-11T05:09:32.832Z,985.39
2018-03-11T05:10:32.807Z,985.38
2018-03-11T05:12:25.676Z,985.33
2018-03-11T05:13:25.636Z,985.30
2018-03-11T05:15:18.487Z,985.16
2018-03-11T05:16:18.472Z,985.02
2018-03-11T05:18:11.331Z,984.99
2018-03-11T05:19:11.296Z,984.98
2018-03-11T05:21:04.151Z,984.91
2018-03-11T05:22:04.130Z,984.84
2018-03-11T05:23:57.018Z,984.83
2018-03-11T05:24:56.955Z,984.80
2018-03-11T05:26:49.809Z,984.66
2018-03-11T05:27:49.791Z,984.64
2018-03-11T05:29:42.652Z,984.61
2018-03-11T05:30:42.623Z,984.56
2018-03-11T05:32:35.469Z,984.61
2018-03-11T05:33:35.448Z,984.58
2018-03-11T05:35:28.309Z,984.52
2018-03-11T05:36:28.277Z,984.52
2018-03-11T05:38:21.130Z,984.51
2018-03-11T05:39:21.108Z,984.52
2018-03-11T05:41:13.981Z,984.46
2018-03-11T05:42:13.939Z,984.46
2018-03-11T05:44:06.811Z,984.41
2018-03-11T05:45:06.795Z,984.40
2018-03-11T05:46:59.637Z,984.30
2018-03-11T05:47:59.607Z,984.34
2018-03-11T05:49:52.448Z,984.25
2018-03-11T05:50:52.425Z,984.22
2018-03-11T05:52:45.302Z,984.16
2018-03-11T05:53:45.272Z,984.10
2018-03-11T05:55:38.119Z,984.12
2018-03-11T05:56:38.097Z,984.08
2018-03-11T05:58:30.960Z,984.13
2018-03-11T05:59:30.927Z,984.15
2018-03-11T06:01:23.775Z,984.10
2018-03-11T06:02:23.762Z,984.08
2018-03-11T06:04:16.628Z,984.09
2018-03-11T06:05:16.585Z,984.04
2018-03-11T06:07:09.438Z,983.98
2018-03-11T06:08:09.417Z,983.97
2018-03-11T06:10:02.288Z,984.02
2018-03-11T06:11:02.258Z,984.01
2018-03-11T06:12:55.100Z,983.96
2018-03-11T06:13:55.078Z,983.94
2018-03-11T06:15:47.940Z,983.93
2018-03-11T06:16:47.953Z,983.97
2018-03-11T06:18:40.760Z,983.84
2018-03-11T06:19:40.741Z,983.82
2018-03-11T06:21:33.603Z,983.76
2018-03-11T06:22:33.569Z,983.76
2018-03-11T06:24:26.422Z,983.73
2018-03-11T06:25:26.402Z,983.67
2018-03-11T06:27:19.262Z,983.66
2018-03-11T06:28:19.232Z,983.67
2018-03-11T06:30:12.085Z,983.61
2018-03-11T06:31:12.062Z,983.57
2018-03-11T06:33:04.930Z,983.55
2018-03-11T06:34:04.896Z,983.46
2018-03-11T06:35:57.748Z,983.38
2018-03-11T06:36:57.728Z,983.35
2018-03-11T06:38:50.590Z,983.28
2018-03-11T06:39:50.558Z,983.24
2018-03-11T06:41:43.407Z,983.18
2018-03-11T06:42:43.392Z,983.27
2018-03-11T06:44:36.257Z,983.28
2018-03-11T06:45:36.218Z,983.29
2018-03-11T06:47:29.070Z,983.42
2018-03-11T06:48:29.047Z,983.51
2018-03-11T06:50:21.915Z,983.65
2018-03-11T06:51:21.880Z,983.81
2018-03-11T06:53:14.733Z,984.06
2018-03-11T06:54:14.711Z,984.11
2018-03-11T06:56:07.569Z,984.21
2018-03-11T06:57:07.539Z,984.19
2018-03-11T06:59:00.388Z,984.26
2018-03-11T07:00:00.370Z,984.25
2018-03-11T07:01:53.229Z,984.21
2018-03-11T07:02:53.201Z,984.23
2018-03-11T07:04:46.047Z,984.17
2018-03-11T07:05:46.025Z,984.16
2018-03-11T07:07:38.887Z,984.18
2018-03-11T07:08:38.857Z,984.14
2018-03-11T07:10:31.703Z,984.14
2018-03-11T07:11:31.684Z,984.16
2018-03-11T07:13:24.556Z,984.21
2018-03-11T07:14:24.521Z,984.18
2018-03-11T07:16:17.375Z,984.24
2018-03-11T07:17:17.349Z,984.12
2018-03-11T07:19:10.209Z,984.05
2018-03-11T07:20:10.176Z,984.04
2018-03-11T07:22:03.027Z,984.10
2018-03-11T07:23:03.005Z,984.11
2018-03-11T07:24:55.869Z,984.04
2018-03-11T07:25:55.839Z,984.05
2018-03-11T07:27:48.687Z,984.03
2018-03-11T07:28:48.668Z,984.02
2018-03-11T07:30:41.532Z,984.06
2018-03-11T07:31:41.499Z,984.02
2018-03-11T07:33:34.356Z,984.03
2018-03-11T07:34:34.330Z,984.06
2018-03-11T07:36:27.193Z,984.12
2018-03-11T07:37:27.163Z,984.20
2018-03-11T07:39:20.014Z,984.35
2018-03-11T07:40:19.994Z,984.50
2018-03-11T07:42:12.863Z,984.59
2018-03-11T07:43:12.830Z,984.66
2018-03-11T07:45:06.177Z,984.73
2018-03-11T07:46:06.157Z,984.71
2018-03-11T07:47:59.018Z,984.81
2018-03-11T07:48:58.986Z,984.83
2018-03-11T07:50:51.837Z,984.87
2018-03-11T07:51:51.817Z,984.89
2018-03-11T07:53:44.684Z,984.77
2018-03-11T07:54:44.652Z,984.77
2018-03-11T07:56:37.506Z,984.96
2018-03-11T07:57:37.490Z,984.98
2018-03-11T07:59:30.346Z,984.79
2018-03-11T08:00:30.315Z,984.80
2018-03-11T08:02:23.167Z,984.98
2018-03-11T08:03:23.145Z,985.08
2018-03-11T08:05:16.009Z,985.21
2018-03-11T08:06:15.980Z,985.19
2018-03-11T08:08:08.832Z,985.25
2018-03-11T08:09:08.808Z,985.19
2018-03-11T08:11:01.669Z,985.32
2018-03-11T08:12:01.639Z,985.29
2018-03-11T08:13:54.490Z,985.14
2018-03-11T08:14:54.470Z,985.20
2018-03-11T08:16:47.338Z,985.23
2018-03-11T08:17:47.325Z,985.26
2018-03-11T08:19:40.161Z,985.23
2018-03-11T08:20:40.141Z,985.28
2018-03-11T08:22:32.999Z,985.35
2018-03-11T08:23:32.968Z,985.32
2018-03-11T08:25:25.817Z,985.37
2018-03-11T08:26:25.797Z,985.35
2018-03-11T08:28:18.662Z,985.25
2018-03-11T08:29:18.629Z,985.20
2018-03-11T08:31:11.481Z,985.37
2018-03-11T08:32:11.459Z,985.36
2018-03-11T08:34:04.326Z,985.34
2018-03-11T08:35:04.295Z,985.35
2018-03-11T08:36:57.147Z,985.38
2018-03-11T08:37:57.123Z,985.40
2018-03-11T08:39:49.983Z,985.35
2018-03-11T08:40:49.951Z,985.28
2018-03-11T08:42:42.804Z,985.21
2018-03-11T08:43:42.783Z,985.26
2018-03-11T08:45:36.137Z,985.26
2018-03-11T08:46:36.105Z,985.17
2018-03-11T08:48:28.959Z,985.22
2018-03-11T08:49:28.939Z,985.31
2018-03-11T08:51:21.800Z,985.30
2018-03-11T08:52:21.770Z,985.37
2018-03-11T08:54:14.618Z,985.45
2018-03-11T08:55:14.599Z,985.44
2018-03-11T08:57:07.460Z,985.40
2018-03-11T08:58:07.429Z,985.33
2018-03-11T09:00:00.281Z,985.24
2018-03-11T09:01:00.260Z,985.27
2018-03-11T09:02:53.615Z,985.39
2018-03-11T09:03:53.582Z,985.39
2018-03-11T09:05:46.930Z,985.52
2018-03-11T09:06:46.907Z,985.53
2018-03-11T09:08:40.266Z,985.53
2018-03-11T09:09:40.232Z,985.62
2018-03-11T09:11:33.081Z,985.69
2018-03-11T09:12:33.060Z,985.65
2018-03-11T09:14:25.930Z,985.76
2018-03-11T09:15:25.895Z,985.73
2018-03-11T09:17:18.746Z,985.76
2018-03-11T09:18:18.726Z,985.84
2018-03-11T09:20:11.592Z,985.86
2018-03-11T09:21:11.561Z,985.86
2018-03-11T09:23:04.406Z,985.86
2018-03-11T09:24:04.455Z,985.80
2018-03-11T09:25:57.246Z,985.71
2018-03-11T09:26:57.218Z,985.70
2018-03-11T09:28:50.068Z,985.65
2018-03-11T09:29:50.050Z,985.66
2018-03-11T09:31:42.907Z,985.76
2018-03-11T09:32:42.879Z,985.84
2018-03-11T09:34:35.733Z,985.89
2018-03-11T09:35:35.714Z,985.88
2018-03-11T09:37:28.573Z,985.96
2018-03-11T09:38:28.544Z,985.99
2018-03-11T09:40:21.394Z,986.08
2018-03-11T09:41:21.374Z,986.13
2018-03-11T09:43:14.239Z,986.08
2018-03-11T09:44:14.208Z,986.02
2018-03-11T09:46:07.059Z,986.02
2018-03-11T09:47:07.058Z,986.02
2018-03-11T09:48:59.920Z,985.99
2018-03-11T09:49:59.886Z,986.01
2018-03-11T09:51:52.737Z,985.86
2018-03-11T09:52:52.719Z,985.70
2018-03-11T09:54:45.581Z,985.65
2018-03-11T09:55:45.553Z,985.54
2018-03-11T09:57:38.403Z,985.51
2018-03-11T09:58:38.441Z,985.53
2018-03-11T10:00:31.738Z,985.58
2018-03-11T10:01:31.713Z,985.64
2018-03-11T10:03:25.061Z,985.63
2018-03-11T10:04:25.043Z,985.71
2018-03-11T10:06:18.399Z,985.73
2018-03-11T10:07:18.367Z,985.74
2018-03-11T10:09:11.223Z,985.79
2018-03-11T10:10:11.199Z,985.80
2018-03-11T10:12:04.556Z,985.74
2018-03-11T10:13:04.534Z,985.66
2018-03-11T10:14:57.375Z,985.64
2018-03-11T10:15:57.356Z,985.58
2018-03-11T10:17:50.713Z,985.61
2018-03-11T10:18:50.684Z,985.55
2018-03-11T10:20:44.031Z,985.61
2018-03-11T10:21:44.008Z,985.63
2018-03-11T10:23:37.365Z,985.58
2018-03-11T10:24:37.332Z,985.56
2018-03-11T10:26:30.692Z,985.52
2018-03-11T10:27:30.675Z,985.51
2018-03-11T10:29:23.521Z,985.50
2018-03-11T10:30:23.496Z,985.45
2018-03-11T10:32:16.837Z,985.32
2018-03-11T10:33:16.817Z,985.26
2018-03-11T10:35:09.682Z,985.30
2018-03-11T10:36:09.650Z,985.31
2018-03-11T10:38:02.508Z,985.21
2018-03-11T10:39:02.482Z,985.16
2018-03-11T10:40:55.844Z,984.99
2018-03-11T10:41:55.810Z,984.91
2018-03-11T10:43:49.156Z,984.81
2018-03-11T10:44:49.139Z,984.85
2018-03-11T10:46:42.496Z,984.71
2018-03-11T10:47:42.465Z,984.68
2018-03-11T10:49:35.813Z,984.61
2018-03-11T10:50:35.800Z,984.54
2018-03-11T10:52:28.661Z,984.41
2018-03-11T10:53:28.630Z,984.18
2018-03-11T10:55:21.481Z,983.81
2018-03-11T10:56:21.461Z,983.86
2018-03-11T10:58:14.822Z,983.96
2018-03-11T10:59:14.794Z,983.71
2018-03-11T11:01:07.648Z,983.38
2018-03-11T11:02:07.629Z,983.53
2018-03-11T11:04:00.490Z,983.91
2018-03-11T11:05:00.463Z,983.95
2018-03-11T11:06:53.316Z,983.61
2018-03-11T11:07:53.294Z,983.59
2018-03-11T11:09:46.652Z,983.55
2018-03-11T11:10:46.622Z,983.61
2018-03-11T11:12:39.481Z,983.82
2018-03-11T11:13:39.517Z,983.92
2018-03-11T11:15:32.330Z,983.87
2018-03-11T11:16:32.297Z,983.73
2018-03-11T11:18:25.198Z,983.56
2018-03-11T11:19:25.131Z,983.67
2018-03-11T11:21:18.491Z,983.96
2018-03-11T11:22:18.470Z,983.95
2018-03-11T11:24:11.317Z,983.84
2018-03-11T11:25:11.304Z,983.89
2018-03-11T11:27:04.213Z,984.02
2018-03-11T11:28:04.137Z,983.95
2018-03-11T11:29:57.485Z,983.76
2018-03-11T11:30:57.468Z,983.98
2018-03-11T11:32:50.333Z,984.07
2018-03-11T11:33:50.307Z,983.72
2018-03-11T11:35:43.674Z,983.52
2018-03-11T11:36:43.664Z,983.64
2018-03-11T11:38:37.027Z,983.82
2018-03-11T11:39:36.991Z,983.76
2018-03-11T11:41:30.344Z,983.66
2018-03-11T11:42:30.344Z,983.62
2018-03-11T11:44:23.708Z,983.40
2018-03-11T11:45:23.672Z,983.42
2018-03-11T11:47:17.021Z,983.58
2018-03-11T11:48:17.019Z,983.66
2018-03-11T11:50:10.381Z,983.66
2018-03-11T11:51:10.352Z,983.64
2018-03-11T11:53:03.206Z,983.80
2018-03-11T11:54:03.189Z,983.69
2018-03-11T11:55:56.558Z,983.77
2018-03-11T11:56:56.536Z,983.92
2018-03-11T11:58:49.888Z,983.83
2018-03-11T11:59:49.866Z,983.83
2018-03-11T12:01:43.263Z,983.93
2018-03-11T12:02:43.237Z,983.93
2018-03-11T12:04:36.579Z,983.99
2018-03-11T12:05:36.563Z,984.03
2018-03-11T12:07:29.941Z,984.08
2018-03-11T12:08:29.895Z,983.94
2018-03-11T12:10:23.255Z,983.87
2018-03-11T12:11:23.241Z,983.95
2018-03-11T12:13:16.645Z,984.07
2018-03-11T12:14:16.582Z,983.97
2018-03-11T12:16:09.941Z,983.83
2018-03-11T12:17:09.930Z,983.81
2018-03-11T12:19:04.324Z,983.81
2018-03-11T12:20:04.266Z,983.74
2018-03-11T12:21:57.641Z,983.70
2018-03-11T12:22:57.619Z,983.69
2018-03-11T12:24:50.992Z,983.70
2018-03-11T12:25:50.975Z,983.70
2018-03-11T12:27:44.358Z,983.65
2018-03-11T12:28:44.316Z,983.59
2018-03-11T12:30:37.699Z,983.57
2018-03-11T12:31:37.667Z,983.55
2018-03-11T12:33:31.025Z,983.63
2018-03-11T12:34:31.051Z,983.64
2018-03-11T12:36:24.383Z,983.61
2018-03-11T12:37:24.344Z,983.61
2018-03-11T12:39:18.117Z,983.58
2018-03-11T12:40:17.693Z,983.48
2018-03-11T12:42:11.068Z,983.40
2018-03-11T12:43:11.034Z,983.42
2018-03-11T12:45:04.396Z,983.40
2018-03-11T12:46:04.390Z,983.35
2018-03-11T12:47:57.766Z,983.33
2018-03-11T12:48:57.913Z,983.29
2018-03-11T12:50:51.110Z,983.31
2018-03-11T12:51:51.077Z,983.31
2018-03-11T12:53:44.458Z,983.28
2018-03-11T12:54:44.446Z,983.19
2018-03-11T12:56:37.782Z,983.12
2018-03-11T12:57:37.776Z,983.12
2018-03-11T12:59:31.156Z,983.23
2018-03-11T13:00:31.114Z,983.25
2018-03-11T13:02:24.485Z,983.19
2018-03-11T13:03:24.460Z,983.18
2018-03-11T13:05:17.838Z,983.18
2018-03-11T13:06:17.830Z,983.16
2018-03-11T13:08:11.170Z,983.13
2018-03-11T13:09:11.143Z,983.13
2018-03-11T13:11:05.527Z,983.08
2018-03-11T13:12:05.484Z,983.09
2018-03-11T13:13:58.860Z,983.10
2018-03-11T13:14:58.854Z,983.06
2018-03-11T13:16:52.227Z,983.08
2018-03-11T13:17:52.190Z,983.10
2018-03-11T13:19:45.587Z,983.18
2018-03-11T13:20:45.539Z,983.19
2018-03-11T13:22:38.904Z,983.17
2018-03-11T13:23:38.872Z,983.20
2018-03-11T13:25:32.229Z,983.15
2018-03-11T13:26:32.214Z,983.14
2018-03-11T13:28:25.595Z,983.11
2018-03-11T13:29:25.587Z,983.15
2018-03-11T13:31:18.940Z,983.19
2018-03-11T13:32:18.932Z,983.17
2018-03-11T13:34:12.293Z,983.20
2018-03-11T13:35:12.287Z,983.18
2018-03-11T13:37:05.619Z,983.16
2018-03-11T13:38:05.629Z,983.22
2018-03-11T13:39:59.055Z,983.26
2018-03-11T13:40:58.966Z,983.27
2018-03-11T13:42:52.324Z,983.25
2018-03-11T13:43:52.351Z,983.22
2018-03-11T13:45:46.911Z,983.20
2018-03-11T13:46:46.821Z,983.19
2018-03-11T13:48:40.118Z,983.20
2018-03-11T13:49:40.058Z,983.23
2018-03-11T13:51:33.458Z,983.26
2018-03-11T13:52:33.403Z,983.25
2018-03-11T13:54:26.750Z,983.20
2018-03-11T13:55:26.757Z,983.21
2018-03-11T13:57:20.119Z,983.21
2018-03-11T13:58:20.110Z,983.22
2018-03-11T14:00:13.428Z,983.23
2018-03-11T14:01:13.496Z,983.22
2018-03-11T14:03:01.909Z,983.25
2018-03-11T14:04:01.876Z,983.25
2018-03-11T14:05:55.230Z,983.25
2018-03-11T14:06:55.213Z,983.21
2018-03-11T14:08:48.088Z,983.22
2018-03-11T14:09:48.055Z,983.18
2018-03-11T14:11:41.646Z,983.18
2018-03-11T14:12:41.395Z,983.19
2018-03-11T14:14:35.778Z,983.16
2018-03-11T14:15:35.734Z,983.17
2018-03-11T14:17:28.589Z,983.16
2018-03-11T14:18:28.779Z,983.18
2018-03-11T14:20:21.944Z,983.14
2018-03-11T14:21:21.909Z,983.16
2018-03-11T14:23:15.356Z,983.16
2018-03-11T14:24:15.243Z,983.16
2018-03-11T14:26:08.121Z,983.20
2018-03-11T14:27:08.086Z,983.19
2018-03-11T14:29:00.957Z,983.15
2018-03-11T14:30:00.933Z,983.21
2018-03-11T14:31:54.324Z,983.17
2018-03-11T14:32:54.276Z,983.18
2018-03-11T14:34:47.134Z,983.16
2018-03-11T14:35:47.453Z,983.18
2018-03-11T14:37:39.987Z,983.25
2018-03-11T14:38:39.964Z,983.25
2018-03-11T14:40:33.322Z,983.23
2018-03-11T14:41:33.292Z,983.24
2018-03-11T14:43:26.168Z,983.20
2018-03-11T14:44:26.563Z,983.24
2018-03-11T14:46:19.489Z,983.26
2018-03-11T14:47:19.807Z,983.27
2018-03-11T14:49:12.869Z,983.27
2018-03-11T14:50:12.804Z,983.27
2018-03-11T14:52:05.808Z,983.34
2018-03-11T14:53:05.648Z,983.36
2018-03-11T14:54:59.027Z,983.33
2018-03-11T14:55:58.995Z,983.32
2018-03-11T14:57:52.361Z,983.27
2018-03-11T14:58:52.601Z,983.28
2018-03-11T15:00:45.704Z,983.34
2018-03-11T15:01:45.739Z,983.35
2018-03-11T15:03:39.028Z,983.28
2018-03-11T15:04:39.348Z,983.29
2018-03-11T15:06:32.377Z,983.24
2018-03-11T15:07:32.342Z,983.27
2018-03-11T15:09:25.208Z,983.30
2018-03-11T15:10:25.184Z,983.29
2018-03-11T15:12:18.564Z,983.29
2018-03-11T15:13:18.530Z,983.31
2018-03-11T15:15:11.921Z,983.30
2018-03-11T15:16:12.180Z,983.29
2018-03-11T15:18:05.236Z,983.24
2018-03-11T15:19:05.202Z,983.20
2018-03-11T15:20:58.063Z,983.15
2018-03-11T15:21:58.047Z,983.10
2018-03-11T15:23:51.418Z,983.10
2018-03-11T15:24:51.428Z,983.06
2018-03-11T15:26:44.732Z,983.10
2018-03-11T15:27:44.718Z,983.03
2018-03-11T15:29:37.597Z,983.11
2018-03-11T15:30:37.556Z,983.10
2018-03-11T15:32:30.417Z,983.07
2018-03-11T15:33:30.419Z,983.08
2018-03-11T15:35:23.767Z,983.06
2018-03-11T15:36:23.733Z,983.10
2018-03-11T15:38:16.590Z,983.11
2018-03-11T15:39:16.574Z,983.09
2018-03-11T15:41:09.457Z,983.09
2018-03-11T15:42:09.426Z,983.06
2018-03-11T15:44:02.285Z,983.06
2018-03-11T15:45:02.265Z,983.08
2018-03-11T15:46:55.500Z,983.07
2018-03-11T15:47:55.102Z,983.13
2018-03-11T15:49:48.454Z,983.10
2018-03-11T15:50:48.439Z,983.07
2018-03-11T15:52:42.023Z,983.06
2018-03-11T15:53:42.032Z,983.09
2018-03-11T15:55:34.627Z,983.03
2018-03-11T15:56:34.606Z,983.04
2018-03-11T15:58:27.487Z,982.98
2018-03-11T15:59:27.446Z,982.98
2018-03-11T16:01:20.319Z,982.88
2018-03-11T16:02:20.294Z,982.89
2018-03-11T16:04:13.403Z,982.90
2018-03-11T16:05:13.156Z,982.90
2018-03-11T16:07:05.995Z,982.90
2018-03-11T16:08:05.974Z,982.90
2018-03-11T16:09:59.340Z,982.83
2018-03-11T16:10:59.307Z,982.84
2018-03-11T16:12:52.164Z,982.84
2018-03-11T16:13:52.143Z,982.83
2018-03-11T16:15:45.018Z,982.78
2018-03-11T16:16:44.987Z,982.77
2018-03-11T16:18:38.355Z,982.73
2018-03-11T16:19:38.339Z,982.78
2018-03-11T16:21:31.983Z,982.78
2018-03-11T16:22:31.667Z,982.78
2018-03-11T16:24:28.557Z,982.78
2018-03-11T16:25:24.538Z,982.79
2018-03-11T16:27:17.900Z,982.73
2018-03-11T16:28:17.882Z,982.77
2018-03-11T16:30:11.017Z,982.76
2018-03-11T16:31:10.707Z,982.73
2018-03-11T16:33:04.082Z,982.70
2018-03-11T16:34:04.045Z,982.71
2018-03-11T16:35:57.402Z,982.71
2018-03-11T16:36:56.891Z,982.71
2018-03-11T16:38:50.261Z,982.72
2018-03-11T16:39:50.303Z,982.73
2018-03-11T16:41:43.605Z,982.73
2018-03-11T16:42:43.570Z,982.72
2018-03-11T16:44:37.033Z,982.72
2018-03-11T16:45:36.919Z,982.72
2018-03-11T16:47:30.269Z,982.75
2018-03-11T16:48:30.247Z,982.74
2018-03-11T16:50:23.134Z,982.70
2018-03-11T16:51:23.130Z,982.69
2018-03-11T16:53:15.957Z,982.82
2018-03-11T16:54:16.213Z,982.74
2018-03-11T16:56:08.809Z,982.74
2018-03-11T16:57:08.777Z,982.75
2018-03-11T16:59:01.634Z,982.76
2018-03-11T17:00:01.663Z,982.71
2018-03-11T17:01:54.493Z,982.72
2018-03-11T17:02:54.459Z,982.72
2018-03-11T17:04:47.808Z,982.70
2018-03-11T17:05:47.801Z,982.75
2018-03-11T17:07:40.658Z,982.72
2018-03-11T17:08:40.628Z,982.72
2018-03-11T17:10:33.979Z,982.75
2018-03-11T17:11:33.964Z,982.71
2018-03-11T17:13:26.905Z,982.70
2018-03-11T17:14:26.801Z,982.69
2018-03-11T17:16:20.155Z,982.65
2018-03-11T17:17:20.142Z,982.66
2018-03-11T17:19:13.521Z,982.66
2018-03-11T17:20:13.490Z,982.66
2018-03-11T17:22:06.338Z,982.67
2018-03-11T17:23:06.323Z,982.70
2018-03-11T17:24:59.699Z,982.71
2018-03-11T17:25:59.665Z,982.66
2018-03-11T17:27:53.046Z,982.65
2018-03-11T17:28:53.007Z,982.69
2018-03-11T17:30:46.371Z,982.72
2018-03-11T17:31:46.343Z,982.67
2018-03-11T17:33:39.679Z,982.70
2018-03-11T17:34:39.676Z,982.67
2018-03-11T17:36:33.042Z,982.64
2018-03-11T17:37:32.997Z,982.65
2018-03-11T17:39:25.914Z,982.69
2018-03-11T17:40:25.838Z,982.67
2018-03-11T17:42:19.214Z,982.63
2018-03-11T17:43:19.185Z,982.66
2018-03-11T17:45:12.536Z,982.66
2018-03-11T17:46:12.522Z,982.63
2018-03-11T17:48:05.887Z,982.64
2018-03-11T17:49:05.848Z,982.62
2018-03-11T17:50:59.201Z,982.65
2018-03-11T17:51:59.192Z,982.59
2018-03-11T17:53:52.549Z,982.57
2018-03-11T17:54:52.527Z,982.56
2018-03-11T17:56:45.424Z,982.49
2018-03-11T17:57:45.355Z,982.47
2018-03-11T17:59:38.230Z,982.47